Weather at Charlotte Douglas International Airport

Public forecast

Using degrees Fahrenheit for public forecast. Weather courtesy of forecast.io.

Current aviation weather report (METAR) for Charlotte Douglas International Airport

2024/05/18 09:21 (retrieved 29 minutes ago)

KCLT 180921Z 21006KT 10SM SCT009 BKN014 OVC048 20/18 A2988 RMK AO2 T02000178

Aviation forecast (TAF) for Charlotte Douglas International Airport

2024/05/18 09:18 Ammendment (retrieved 32 minutes ago)

TAF AMD KCLT 180914Z 1809/1912 22008KT P6SM FEW009 OVC040 TEMPO 1810/1812 BKN009 FM181500 22005KT P6SM BKN015 FM181800 21006KT P6SM VCSH OVC040 PROB30 1821/1903 4SM TSRA BR OVC025CB FM190400 02004KT P6SM BKN027 FM190600 03007KT 6SM -DZ BR VCSH OVC005